Lost Creek, West Virginia
Current Conditions -  °F | °C
As of 12:53 PM on Friday 21 Nov 2014 (Local Time) from KCKB Reporting Station
Clear Clear  
Wind Chill: 21°   Ceiling: Unl
Heat Index: 30°   Visibility: 10mi
Dew Point:   Wind: 10mph
Humidity: 40%   Direction: 300°WNW
Pressure: 30.45"   Gusts: NA
Location:  39.16°N, 80.35°W
Report Text: KCKB 211753Z 30009KT 10SM CLR M01/M13 A3045 RMK AO2 SLP322 T10111133 11011 21067 51002
Loading
Personal Weather Stations






























Interactive Weather Map New forecast layout! Learn more

10-Day Weather Forecast

Advertisements
Track Severe Weather on mobile